createdAt,value
2023-07-03T00:00:25.042Z,94469.00
2023-07-03T00:01:25.045Z,94469.00
2023-07-03T00:02:25.076Z,94469.00
2023-07-03T00:03:25.044Z,94469.00
2023-07-03T00:04:25.099Z,94469.00
2023-07-03T00:05:25.163Z,94469.00
2023-07-03T00:06:24.999Z,94469.00
2023-07-03T00:07:24.983Z,94469.00
2023-07-03T00:08:24.973Z,94469.00
2023-07-03T00:09:24.972Z,94469.00
2023-07-03T00:10:24.993Z,94467.00
2023-07-03T00:11:24.966Z,94467.00
2023-07-03T00:12:24.976Z,94465.00
2023-07-03T00:13:24.942Z,94469.00
2023-07-03T00:14:24.951Z,94467.00
2023-07-03T00:15:24.982Z,94469.00
2023-07-03T00:16:24.955Z,94467.00
2023-07-03T00:17:24.979Z,94463.00
2023-07-03T00:18:24.951Z,94465.00
2023-07-03T00:19:24.915Z,94463.00
2023-07-03T00:20:24.951Z,94463.00
2023-07-03T00:21:24.905Z,94463.00
2023-07-03T00:22:24.891Z,94463.00
2023-07-03T00:23:24.901Z,94465.00
2023-07-03T00:24:24.889Z,94467.00
2023-07-03T00:25:24.884Z,94465.00
2023-07-03T00:26:24.890Z,94469.00
2023-07-03T00:27:24.874Z,94469.00
2023-07-03T00:28:24.885Z,94471.00
2023-07-03T00:29:24.853Z,94471.00
2023-07-03T00:30:24.891Z,94473.00
2023-07-03T00:31:24.887Z,94473.00
2023-07-03T00:32:24.885Z,94471.00
2023-07-03T00:33:24.836Z,94473.00
2023-07-03T00:34:24.854Z,94471.00
2023-07-03T00:35:24.849Z,94469.00
2023-07-03T00:36:24.796Z,94471.00
2023-07-03T00:37:24.807Z,94469.00
2023-07-03T00:38:24.790Z,94467.00
2023-07-03T00:39:24.778Z,94467.00
2023-07-03T00:40:24.795Z,94469.00
2023-07-03T00:41:24.769Z,94467.00
2023-07-03T00:42:24.751Z,94469.00
2023-07-03T00:43:24.753Z,94465.00
2023-07-03T00:44:24.798Z,94465.00
2023-07-03T00:45:24.753Z,94465.00
2023-07-03T00:46:24.763Z,94467.00
2023-07-03T00:47:24.758Z,94467.00
2023-07-03T00:48:24.729Z,94467.00
2023-07-03T00:49:24.715Z,94465.00
2023-07-03T00:50:24.724Z,94465.00
2023-07-03T00:51:24.694Z,94467.00
2023-07-03T00:52:24.699Z,94465.00
2023-07-03T00:53:24.698Z,94465.00
2023-07-03T00:54:24.667Z,94467.00
2023-07-03T00:55:24.665Z,94469.00
2023-07-03T00:56:24.667Z,94469.00
2023-07-03T00:57:24.686Z,94471.00
2023-07-03T00:58:24.661Z,94473.00
2023-07-03T00:59:24.636Z,94474.00
2023-07-03T01:01:31.701Z,94474.00
2023-07-03T01:02:24.648Z,94476.00
2023-07-03T01:03:25.093Z,94478.00
2023-07-03T01:04:24.687Z,94476.00
2023-07-03T01:05:24.704Z,94473.00
2023-07-03T01:06:24.605Z,94474.00
2023-07-03T01:07:24.576Z,94473.00
2023-07-03T01:08:24.610Z,94474.00
2023-07-03T01:09:24.580Z,94473.00
2023-07-03T01:10:24.564Z,94474.00
2023-07-03T01:11:24.609Z,94474.00
2023-07-03T01:12:24.549Z,94474.00
2023-07-03T01:13:24.544Z,94476.00
2023-07-03T01:14:24.546Z,94476.00
2023-07-03T01:15:24.560Z,94476.00
2023-07-03T01:16:24.525Z,94478.00
2023-07-03T01:17:24.519Z,94478.00
2023-07-03T01:18:24.547Z,94480.00
2023-07-03T01:19:24.506Z,94478.00
2023-07-03T01:20:24.523Z,94478.00
2023-07-03T01:21:24.501Z,94480.00
2023-07-03T01:22:24.492Z,94480.00
2023-07-03T01:23:24.519Z,94478.00
2023-07-03T01:24:24.471Z,94480.00
2023-07-03T01:25:24.473Z,94478.00
2023-07-03T01:26:24.463Z,94478.00
2023-07-03T01:27:24.548Z,94478.00
2023-07-03T01:28:24.509Z,94480.00
2023-07-03T01:29:24.450Z,94482.00
2023-07-03T01:30:24.433Z,94480.00
2023-07-03T01:31:24.453Z,94482.00
2023-07-03T01:32:24.430Z,94482.00
2023-07-03T01:33:24.427Z,94482.00
2023-07-03T01:34:24.407Z,94484.00
2023-07-03T01:35:24.405Z,94484.00
2023-07-03T01:36:24.397Z,94482.00
2023-07-03T01:37:24.399Z,94480.00
2023-07-03T01:38:24.387Z,94480.00
2023-07-03T01:39:24.371Z,94480.00
2023-07-03T01:40:24.375Z,94480.00
2023-07-03T01:41:24.383Z,94482.00
2023-07-03T01:42:24.347Z,94482.00
2023-07-03T01:43:24.355Z,94482.00
2023-07-03T01:44:24.342Z,94486.00
2023-07-03T01:45:24.357Z,94484.00
2023-07-03T01:46:24.366Z,94488.00
2023-07-03T01:47:24.357Z,94488.00
2023-07-03T01:48:24.344Z,94486.00
2023-07-03T01:49:24.304Z,94486.00
2023-07-03T01:50:24.355Z,94486.00
2023-07-03T01:51:24.290Z,94488.00
2023-07-03T01:52:24.321Z,94488.00
2023-07-03T01:53:24.288Z,94488.00
2023-07-03T01:54:24.267Z,94488.00
2023-07-03T01:55:24.272Z,94488.00
2023-07-03T01:56:24.279Z,94488.00
2023-07-03T01:57:24.252Z,94488.00
2023-07-03T01:58:24.286Z,94488.00
2023-07-03T01:59:24.238Z,94484.00
2023-07-03T02:00:24.246Z,94482.00
2023-07-03T02:01:24.286Z,94482.00
2023-07-03T02:02:24.303Z,94480.00
2023-07-03T02:03:24.286Z,94480.00
2023-07-03T02:04:24.274Z,94480.00
2023-07-03T02:05:24.206Z,94480.00
2023-07-03T02:06:24.234Z,94480.00
2023-07-03T02:07:24.179Z,94480.00
2023-07-03T02:08:24.166Z,94478.00
2023-07-03T02:09:24.158Z,94478.00
2023-07-03T02:10:24.160Z,94482.00
2023-07-03T02:11:24.160Z,94480.00
2023-07-03T02:12:24.146Z,94480.00
2023-07-03T02:13:24.146Z,94478.00
2023-07-03T02:14:24.129Z,94478.00
2023-07-03T02:15:24.119Z,94478.00
2023-07-03T02:16:24.181Z,94478.00
2023-07-03T02:17:24.145Z,94478.00
2023-07-03T02:18:24.098Z,94478.00
2023-07-03T02:19:24.088Z,94478.00
2023-07-03T02:20:24.085Z,94480.00
2023-07-03T02:21:24.089Z,94480.00
2023-07-03T02:22:24.116Z,94480.00
2023-07-03T02:23:24.133Z,94480.00
2023-07-03T02:24:24.139Z,94480.00
2023-07-03T02:25:24.131Z,94482.00
2023-07-03T02:26:24.182Z,94482.00
2023-07-03T02:27:24.157Z,94482.00
2023-07-03T02:28:24.173Z,94484.00
2023-07-03T02:29:24.176Z,94480.00
2023-07-03T02:30:24.183Z,94482.00
2023-07-03T02:31:24.228Z,94480.00
2023-07-03T02:32:24.245Z,94482.00
2023-07-03T02:33:24.214Z,94484.00
2023-07-03T02:34:24.229Z,94482.00
2023-07-03T02:35:24.249Z,94484.00
2023-07-03T02:36:24.249Z,94484.00
2023-07-03T02:37:24.279Z,94484.00
2023-07-03T02:38:24.283Z,94482.00
2023-07-03T02:39:24.308Z,94480.00
2023-07-03T02:40:24.357Z,94484.00
2023-07-03T02:41:24.331Z,94484.00
2023-07-03T02:42:24.367Z,94482.00
2023-07-03T02:43:24.351Z,94480.00
2023-07-03T02:44:24.368Z,94480.00
2023-07-03T02:45:24.411Z,94482.00
2023-07-03T02:46:24.368Z,94486.00
2023-07-03T02:47:24.455Z,94484.00
2023-07-03T02:48:24.390Z,94482.00
2023-07-03T02:49:24.445Z,94482.00
2023-07-03T02:50:24.412Z,94482.00
2023-07-03T02:51:24.411Z,94482.00
2023-07-03T02:52:24.429Z,94482.00
2023-07-03T02:53:24.433Z,94478.00
2023-07-03T02:54:24.442Z,94482.00
2023-07-03T02:55:24.469Z,94480.00
2023-07-03T02:56:24.500Z,94478.00
2023-07-03T02:57:24.495Z,94478.00
2023-07-03T02:58:24.487Z,94476.00
2023-07-03T02:59:24.516Z,94476.00
2023-07-03T03:00:24.571Z,94478.00
2023-07-03T03:01:24.578Z,94476.00
2023-07-03T03:02:24.561Z,94474.00
2023-07-03T03:03:24.778Z,94474.00
2023-07-03T03:04:24.615Z,94474.00
2023-07-03T03:05:24.567Z,94474.00
2023-07-03T03:06:24.562Z,94476.00
2023-07-03T03:07:24.566Z,94476.00
2023-07-03T03:08:24.568Z,94476.00
2023-07-03T03:09:24.677Z,94476.00
2023-07-03T03:10:24.607Z,94474.00
2023-07-03T03:11:24.601Z,94476.00
2023-07-03T03:12:24.633Z,94478.00
2023-07-03T03:13:24.611Z,94478.00
2023-07-03T03:14:24.617Z,94478.00
2023-07-03T03:15:24.643Z,94478.00
2023-07-03T03:16:24.677Z,94480.00
2023-07-03T03:17:24.672Z,94480.00
2023-07-03T03:18:24.677Z,94478.00
2023-07-03T03:19:24.661Z,94478.00
2023-07-03T03:20:24.677Z,94476.00
2023-07-03T03:21:24.748Z,94478.00
2023-07-03T03:22:24.714Z,94476.00
2023-07-03T03:23:24.740Z,94476.00
2023-07-03T03:24:24.725Z,94473.00
2023-07-03T03:25:24.766Z,94474.00
2023-07-03T03:26:24.752Z,94473.00
2023-07-03T03:27:24.758Z,94478.00
2023-07-03T03:28:24.873Z,94476.00
2023-07-03T03:29:24.791Z,94478.00
2023-07-03T03:30:24.802Z,94476.00
2023-07-03T03:31:24.864Z,94480.00
2023-07-03T03:32:24.832Z,94478.00
2023-07-03T03:33:24.824Z,94478.00
2023-07-03T03:34:24.832Z,94478.00
2023-07-03T03:35:24.852Z,94480.00
2023-07-03T03:36:25.842Z,94480.00
2023-07-03T03:37:24.840Z,94482.00
2023-07-03T03:38:24.858Z,94480.00
2023-07-03T03:39:24.892Z,94482.00
2023-07-03T03:40:24.891Z,94486.00
2023-07-03T03:41:24.893Z,94484.00
2023-07-03T03:42:24.897Z,94482.00
2023-07-03T03:43:24.920Z,94482.00
2023-07-03T03:44:24.950Z,94482.00
2023-07-03T03:45:24.928Z,94484.00
2023-07-03T03:46:24.947Z,94484.00
2023-07-03T03:47:25.000Z,94482.00
2023-07-03T03:48:25.084Z,94488.00
2023-07-03T03:49:24.980Z,94484.00
2023-07-03T03:50:25.000Z,94484.00
2023-07-03T03:51:24.991Z,94486.00
2023-07-03T03:52:25.009Z,94484.00
2023-07-03T03:53:25.024Z,94484.00
2023-07-03T03:54:25.042Z,94486.00
2023-07-03T03:55:25.026Z,94488.00
2023-07-03T03:56:25.191Z,94486.00
2023-07-03T03:57:25.184Z,94488.00
2023-07-03T03:58:25.068Z,94488.00
2023-07-03T03:59:25.067Z,94488.00
2023-07-03T04:00:25.075Z,94490.00
2023-07-03T04:01:25.154Z,94490.00
2023-07-03T04:02:25.115Z,94494.00
2023-07-03T04:03:25.133Z,94494.00
2023-07-03T04:04:25.285Z,94494.00
2023-07-03T04:05:25.102Z,94496.00
2023-07-03T04:06:25.115Z,94494.00
2023-07-03T04:07:25.138Z,94496.00
2023-07-03T04:08:25.163Z,94496.00
2023-07-03T04:09:25.133Z,94498.00
2023-07-03T04:10:25.144Z,94496.00
2023-07-03T04:11:25.155Z,94498.00
2023-07-03T04:12:25.160Z,94500.00
2023-07-03T04:13:25.204Z,94500.00
2023-07-03T04:14:25.182Z,94498.00
2023-07-03T04:15:25.182Z,94500.00
2023-07-03T04:16:25.228Z,94502.00
2023-07-03T04:17:25.232Z,94502.00
2023-07-03T04:18:25.230Z,94504.00
2023-07-03T04:19:25.246Z,94504.00
2023-07-03T04:20:25.279Z,94504.00
2023-07-03T04:21:25.300Z,94508.00
2023-07-03T04:22:25.263Z,94506.00
2023-07-03T04:23:25.266Z,94504.00
2023-07-03T04:24:25.288Z,94504.00
2023-07-03T04:25:25.295Z,94504.00
2023-07-03T04:26:25.308Z,94508.00
2023-07-03T04:27:25.315Z,94510.00
2023-07-03T04:28:25.316Z,94510.00
2023-07-03T04:29:25.352Z,94510.00
2023-07-03T04:30:25.338Z,94510.00
2023-07-03T04:31:25.390Z,94512.00
2023-07-03T04:32:25.425Z,94512.00
2023-07-03T04:33:25.400Z,94512.00
2023-07-03T04:34:25.397Z,94512.00
2023-07-03T04:35:25.402Z,94512.00
2023-07-03T04:36:25.410Z,94514.00
2023-07-03T04:37:25.416Z,94512.00
2023-07-03T04:38:25.574Z,94512.00
2023-07-03T04:39:25.455Z,94510.00
2023-07-03T04:40:25.459Z,94510.00
2023-07-03T04:41:25.500Z,94508.00
2023-07-03T04:42:25.522Z,94508.00
2023-07-03T04:43:25.537Z,94510.00
2023-07-03T04:44:25.537Z,94508.00
2023-07-03T04:45:25.502Z,94508.00
2023-07-03T04:46:25.598Z,94508.00
2023-07-03T04:47:25.555Z,94506.00
2023-07-03T04:48:25.536Z,94504.00
2023-07-03T04:49:25.544Z,94504.00
2023-07-03T04:50:25.571Z,94504.00
2023-07-03T04:51:25.570Z,94502.00
2023-07-03T04:52:25.572Z,94502.00
2023-07-03T04:53:25.583Z,94502.00
2023-07-03T04:54:25.601Z,94502.00
2023-07-03T04:55:25.623Z,94500.00
2023-07-03T04:56:25.635Z,94502.00
2023-07-03T04:57:25.628Z,94504.00
2023-07-03T04:58:25.661Z,94504.00
2023-07-03T04:59:25.658Z,94504.00
2023-07-03T05:00:25.662Z,94504.00
2023-07-03T05:01:25.705Z,94504.00
2023-07-03T05:02:25.731Z,94504.00
2023-07-03T05:03:25.716Z,94504.00
2023-07-03T05:04:25.758Z,94504.00
2023-07-03T05:05:25.725Z,94504.00
2023-07-03T05:06:25.769Z,94504.00
2023-07-03T05:07:25.739Z,94506.00
2023-07-03T05:08:25.762Z,94506.00
2023-07-03T05:09:25.756Z,94506.00
2023-07-03T05:10:25.782Z,94508.00
2023-07-03T05:11:25.782Z,94508.00
2023-07-03T05:12:25.842Z,94506.00
2023-07-03T05:13:25.807Z,94508.00
2023-07-03T05:14:25.802Z,94510.00
2023-07-03T05:15:25.856Z,94506.00
2023-07-03T05:16:25.965Z,94510.00
2023-07-03T05:17:25.945Z,94508.00
2023-07-03T05:18:25.932Z,94508.00
2023-07-03T05:19:25.911Z,94512.00
2023-07-03T05:20:25.930Z,94508.00
2023-07-03T05:21:25.923Z,94508.00
2023-07-03T05:22:25.922Z,94508.00
2023-07-03T05:23:25.934Z,94508.00
2023-07-03T05:24:25.933Z,94512.00
2023-07-03T05:25:25.958Z,94510.00
2023-07-03T05:26:25.958Z,94516.00
2023-07-03T05:27:25.951Z,94514.00
2023-07-03T05:28:25.961Z,94518.00
2023-07-03T05:29:25.966Z,94516.00
2023-07-03T05:30:26.028Z,94520.00
2023-07-03T05:31:26.318Z,94518.00
2023-07-03T05:32:26.042Z,94516.00
2023-07-03T05:33:26.063Z,94518.00
2023-07-03T05:34:26.064Z,94516.00
2023-07-03T05:35:26.023Z,94514.00
2023-07-03T05:36:26.071Z,94514.00
2023-07-03T05:37:26.026Z,94514.00
2023-07-03T05:38:26.081Z,94512.00
2023-07-03T05:39:26.072Z,94516.00
2023-07-03T05:40:26.095Z,94514.00
2023-07-03T05:41:26.248Z,94512.00
2023-07-03T05:42:26.144Z,94518.00
2023-07-03T05:43:26.737Z,94514.00
2023-07-03T05:44:26.114Z,94516.00
2023-07-03T05:45:26.109Z,94516.00
2023-07-03T05:46:26.236Z,94518.00
2023-07-03T05:47:26.341Z,94518.00
2023-07-03T05:48:26.143Z,94520.00
2023-07-03T05:49:26.152Z,94516.00
2023-07-03T05:50:26.174Z,94520.00
2023-07-03T05:51:26.745Z,94520.00
2023-07-03T05:52:26.324Z,94522.00
2023-07-03T05:53:26.193Z,94522.00
2023-07-03T05:54:26.186Z,94524.00
2023-07-03T05:55:26.205Z,94524.00
2023-07-03T05:56:26.225Z,94531.00
2023-07-03T05:57:26.226Z,94529.00
2023-07-03T05:58:26.260Z,94529.00
2023-07-03T05:59:26.262Z,94529.00
2023-07-03T06:00:26.264Z,94529.00
2023-07-03T06:01:26.776Z,94531.00
2023-07-03T06:02:26.281Z,94531.00
2023-07-03T06:03:26.477Z,94527.00
2023-07-03T06:04:26.296Z,94527.00
2023-07-03T06:05:26.245Z,94527.00
2023-07-03T06:06:26.247Z,94529.00
2023-07-03T06:07:26.405Z,94527.00
2023-07-03T06:08:26.381Z,94529.00
2023-07-03T06:09:26.243Z,94527.00
2023-07-03T06:10:26.301Z,94525.00
2023-07-03T06:11:26.272Z,94529.00
2023-07-03T06:12:26.275Z,94527.00
2023-07-03T06:13:26.272Z,94529.00
2023-07-03T06:14:26.255Z,94529.00
2023-07-03T06:15:26.262Z,94529.00
2023-07-03T06:16:26.311Z,94531.00
2023-07-03T06:17:26.339Z,94529.00
2023-07-03T06:18:26.331Z,94525.00
2023-07-03T06:19:26.332Z,94525.00
2023-07-03T06:20:26.326Z,94525.00
2023-07-03T06:21:26.366Z,94525.00
2023-07-03T06:22:26.387Z,94529.00
2023-07-03T06:23:26.448Z,94527.00
2023-07-03T06:24:26.504Z,94527.00
2023-07-03T06:25:26.544Z,94525.00
2023-07-03T06:26:26.617Z,94522.00
2023-07-03T06:27:26.680Z,94525.00
2023-07-03T06:28:26.719Z,94522.00
2023-07-03T06:29:26.757Z,94522.00
2023-07-03T06:30:26.806Z,94522.00
2023-07-03T06:31:26.857Z,94522.00
2023-07-03T06:32:27.005Z,94522.00
2023-07-03T06:33:26.898Z,94525.00
2023-07-03T06:34:26.919Z,94522.00
2023-07-03T06:35:26.961Z,94522.00
2023-07-03T06:36:26.960Z,94524.00
2023-07-03T06:37:26.941Z,94524.00
2023-07-03T06:38:26.954Z,94520.00
2023-07-03T06:39:27.034Z,94522.00
2023-07-03T06:40:26.988Z,94520.00
2023-07-03T06:41:26.968Z,94518.00
2023-07-03T06:42:28.378Z,94522.00
2023-07-03T06:43:26.989Z,94524.00
2023-07-03T06:44:26.999Z,94524.00
2023-07-03T06:45:26.992Z,94525.00
2023-07-03T06:46:27.017Z,94524.00
2023-07-03T06:47:27.088Z,94527.00
2023-07-03T06:48:27.036Z,94525.00
2023-07-03T06:49:27.061Z,94525.00
2023-07-03T06:50:27.090Z,94524.00
2023-07-03T06:51:27.302Z,94524.00
2023-07-03T06:52:27.167Z,94525.00
2023-07-03T06:53:27.185Z,94524.00
2023-07-03T06:54:27.215Z,94525.00
2023-07-03T06:55:27.367Z,94524.00
2023-07-03T06:56:27.771Z,94524.00
2023-07-03T06:57:27.346Z,94522.00
2023-07-03T06:58:27.415Z,94522.00
2023-07-03T06:59:27.470Z,94524.00
2023-07-03T07:00:27.529Z,94522.00
2023-07-03T07:01:27.565Z,94524.00
2023-07-03T07:02:27.718Z,94525.00
2023-07-03T07:03:27.769Z,94524.00
2023-07-03T07:04:29.525Z,94525.00
2023-07-03T07:05:27.815Z,94524.00
2023-07-03T07:06:27.836Z,94520.00
2023-07-03T07:07:27.847Z,94524.00
2023-07-03T07:08:27.938Z,94522.00
2023-07-03T07:09:27.963Z,94522.00
2023-07-03T07:10:28.034Z,94518.00
2023-07-03T07:11:28.184Z,94516.00
2023-07-03T07:12:28.156Z,94514.00
2023-07-03T07:13:28.235Z,94514.00
2023-07-03T07:14:28.276Z,94512.00
2023-07-03T07:15:28.335Z,94514.00
2023-07-03T07:16:28.445Z,94510.00
2023-07-03T07:17:42.055Z,94514.00
2023-07-03T07:18:29.469Z,94512.00
2023-07-03T07:19:28.482Z,94514.00
2023-07-03T07:20:28.447Z,94512.00
2023-07-03T07:21:28.441Z,94510.00
2023-07-03T07:22:28.450Z,94510.00
2023-07-03T07:23:28.431Z,94512.00
2023-07-03T07:24:28.427Z,94508.00
2023-07-03T07:25:28.396Z,94510.00
2023-07-03T07:26:28.425Z,94510.00
2023-07-03T07:27:28.501Z,94508.00
2023-07-03T07:28:28.506Z,94504.00
2023-07-03T07:29:28.526Z,94508.00
2023-07-03T07:30:28.618Z,94502.00
2023-07-03T07:31:28.601Z,94504.00
2023-07-03T07:32:28.618Z,94504.00
2023-07-03T07:33:28.630Z,94504.00
2023-07-03T07:34:28.605Z,94500.00
2023-07-03T07:35:28.580Z,94498.00
2023-07-03T07:36:28.665Z,94500.00
2023-07-03T07:37:28.602Z,94500.00
2023-07-03T07:38:28.590Z,94500.00
2023-07-03T07:39:28.600Z,94498.00
2023-07-03T07:40:28.588Z,94498.00
2023-07-03T07:41:28.620Z,94498.00
2023-07-03T07:42:28.595Z,94500.00
2023-07-03T07:43:28.722Z,94500.00
2023-07-03T07:44:28.658Z,94500.00
2023-07-03T07:45:28.598Z,94500.00
2023-07-03T07:46:28.629Z,94496.00
2023-07-03T07:47:28.661Z,94498.00
2023-07-03T07:48:29.973Z,94498.00
2023-07-03T07:49:28.637Z,94500.00
2023-07-03T07:50:28.688Z,94500.00
2023-07-03T07:51:28.609Z,94498.00
2023-07-03T07:52:28.605Z,94498.00
2023-07-03T07:53:28.580Z,94500.00
2023-07-03T07:54:28.573Z,94500.00
2023-07-03T07:55:28.575Z,94500.00
2023-07-03T07:56:29.828Z,94502.00
2023-07-03T07:57:28.548Z,94502.00
2023-07-03T07:58:28.560Z,94500.00
2023-07-03T07:59:28.610Z,94502.00
2023-07-03T08:00:28.730Z,94500.00
2023-07-03T08:01:28.635Z,94500.00
2023-07-03T08:02:28.640Z,94496.00
2023-07-03T08:03:28.718Z,94494.00
2023-07-03T08:04:28.604Z,94498.00
2023-07-03T08:05:28.567Z,94496.00
2023-07-03T08:06:28.538Z,94498.00
2023-07-03T08:07:28.526Z,94496.00
2023-07-03T08:08:28.477Z,94498.00
2023-07-03T08:09:28.462Z,94498.00
2023-07-03T08:10:29.318Z,94498.00
2023-07-03T08:11:28.504Z,94494.00
2023-07-03T08:12:28.463Z,94496.00
2023-07-03T08:13:28.456Z,94496.00
2023-07-03T08:14:28.465Z,94496.00
2023-07-03T08:15:28.534Z,94498.00
2023-07-03T08:16:28.532Z,94496.00
2023-07-03T08:17:28.454Z,94494.00
2023-07-03T08:18:28.429Z,94498.00
2023-07-03T08:19:28.444Z,94496.00
2023-07-03T08:20:28.406Z,94496.00
2023-07-03T08:21:28.430Z,94494.00
2023-07-03T08:22:28.394Z,94496.00
2023-07-03T08:23:28.416Z,94496.00
2023-07-03T08:24:28.392Z,94496.00
2023-07-03T08:25:28.379Z,94496.00
2023-07-03T08:26:28.392Z,94496.00
2023-07-03T08:27:28.365Z,94494.00
2023-07-03T08:28:28.368Z,94496.00
2023-07-03T08:29:28.404Z,94500.00
2023-07-03T08:30:28.389Z,94500.00
2023-07-03T08:31:28.533Z,94500.00
2023-07-03T08:32:28.343Z,94494.00
2023-07-03T08:33:28.388Z,94496.00
2023-07-03T08:34:28.328Z,94490.00
2023-07-03T08:37:28.307Z,94492.00
2023-07-03T08:38:28.301Z,94490.00
2023-07-03T08:39:28.295Z,94490.00
2023-07-03T08:40:28.275Z,94486.00
2023-07-03T08:41:28.300Z,94490.00
2023-07-03T08:42:28.273Z,94486.00
2023-07-03T08:43:28.260Z,94484.00
2023-07-03T08:44:28.257Z,94480.00
2023-07-03T08:45:28.277Z,94482.00
2023-07-03T08:46:28.330Z,94482.00
2023-07-03T08:47:28.422Z,94482.00
2023-07-03T08:48:28.240Z,94482.00
2023-07-03T08:49:28.267Z,94482.00
2023-07-03T08:50:36.991Z,94480.00
2023-07-03T08:51:29.442Z,94484.00
2023-07-03T08:52:28.215Z,94484.00
2023-07-03T08:53:28.225Z,94484.00
2023-07-03T08:54:28.183Z,94484.00
2023-07-03T08:55:28.204Z,94484.00
2023-07-03T08:56:28.184Z,94486.00
2023-07-03T08:57:28.163Z,94484.00
2023-07-03T08:58:28.165Z,94482.00
2023-07-03T08:59:28.163Z,94482.00
2023-07-03T09:00:28.148Z,94482.00
2023-07-03T09:01:28.185Z,94484.00
2023-07-03T09:02:28.254Z,94482.00
2023-07-03T09:03:28.268Z,94480.00
2023-07-03T09:04:28.171Z,94482.00
2023-07-03T09:05:28.110Z,94482.00
2023-07-03T09:06:28.100Z,94484.00
2023-07-03T09:07:28.123Z,94480.00
2023-07-03T09:08:28.089Z,94484.00
2023-07-03T09:09:28.081Z,94482.00
2023-07-03T09:10:28.086Z,94484.00
2023-07-03T09:11:28.347Z,94480.00
2023-07-03T09:12:28.068Z,94474.00
2023-07-03T09:13:28.068Z,94474.00
2023-07-03T09:14:28.064Z,94474.00
2023-07-03T09:15:28.131Z,94478.00
2023-07-03T09:16:28.200Z,94473.00
2023-07-03T09:17:28.236Z,94474.00
2023-07-03T09:18:28.231Z,94473.00
2023-07-03T09:19:28.521Z,94474.00
2023-07-03T09:20:28.289Z,94473.00
2023-07-03T09:21:28.356Z,94469.00
2023-07-03T09:22:28.403Z,94473.00
2023-07-03T09:23:28.473Z,94471.00
2023-07-03T09:24:28.538Z,94471.00
2023-07-03T09:25:28.644Z,94473.00
2023-07-03T09:26:28.787Z,94474.00
2023-07-03T09:27:28.709Z,94473.00
2023-07-03T09:28:28.765Z,94469.00
2023-07-03T09:29:28.814Z,94473.00
2023-07-03T09:30:28.858Z,94474.00
2023-07-03T09:31:29.467Z,94473.00
2023-07-03T09:32:29.040Z,94471.00
2023-07-03T09:33:29.003Z,94469.00
2023-07-03T09:34:29.035Z,94467.00
2023-07-03T09:35:29.112Z,94469.00
2023-07-03T09:36:29.081Z,94465.00
2023-07-03T09:37:29.093Z,94469.00
2023-07-03T09:38:29.134Z,94467.00
2023-07-03T09:39:29.143Z,94465.00
2023-07-03T09:40:29.569Z,94465.00
2023-07-03T09:41:29.265Z,94469.00
2023-07-03T09:42:29.314Z,94465.00
2023-07-03T09:43:29.529Z,94467.00
2023-07-03T09:44:29.297Z,94465.00
2023-07-03T09:45:29.326Z,94463.00
2023-07-03T09:46:29.359Z,94463.00
2023-07-03T09:47:29.428Z,94459.00
2023-07-03T09:48:29.428Z,94461.00
2023-07-03T09:49:29.526Z,94459.00
2023-07-03T09:50:29.468Z,94455.00
2023-07-03T09:51:29.584Z,94453.00
2023-07-03T09:52:29.534Z,94453.00
2023-07-03T09:53:29.571Z,94451.00
2023-07-03T09:54:29.608Z,94447.00
2023-07-03T09:55:29.640Z,94451.00
2023-07-03T09:56:29.672Z,94449.00
2023-07-03T09:57:29.715Z,94449.00
2023-07-03T09:58:29.754Z,94449.00
2023-07-03T09:59:29.784Z,94449.00
2023-07-03T10:00:29.941Z,94449.00
2023-07-03T10:03:30.575Z,94447.00
2023-07-03T10:06:29.826Z,94443.00
2023-07-03T10:07:29.895Z,94443.00
2023-07-03T10:08:30.698Z,94443.00
2023-07-03T10:11:29.814Z,94439.00
2023-07-03T10:12:29.854Z,94439.00
2023-07-03T10:13:29.780Z,94435.00
2023-07-03T10:14:29.792Z,94437.00
2023-07-03T10:15:29.762Z,94435.00
2023-07-03T10:16:29.742Z,94433.00
2023-07-03T10:17:29.826Z,94433.00
2023-07-03T10:18:29.739Z,94431.00
2023-07-03T10:19:29.715Z,94431.00
2023-07-03T10:20:29.744Z,94427.00
2023-07-03T10:21:29.750Z,94427.00
2023-07-03T10:22:29.703Z,94431.00
2023-07-03T10:23:29.847Z,94429.00
2023-07-03T10:24:29.686Z,94427.00
2023-07-03T10:25:29.685Z,94429.00
2023-07-03T10:26:29.673Z,94429.00
2023-07-03T10:27:29.668Z,94427.00
2023-07-03T10:28:29.665Z,94426.00
2023-07-03T10:29:29.671Z,94426.00
2023-07-03T10:30:29.671Z,94424.00
2023-07-03T10:31:29.658Z,94422.00
2023-07-03T10:32:29.676Z,94422.00
2023-07-03T10:33:29.651Z,94424.00
2023-07-03T10:34:29.623Z,94422.00
2023-07-03T10:35:29.604Z,94420.00
2023-07-03T10:36:29.604Z,94418.00
2023-07-03T10:37:29.604Z,94418.00
2023-07-03T10:38:29.609Z,94418.00
2023-07-03T10:39:30.976Z,94420.00
2023-07-03T10:40:29.577Z,94418.00
2023-07-03T10:41:29.577Z,94416.00
2023-07-03T10:42:29.582Z,94418.00
2023-07-03T10:43:29.565Z,94414.00
2023-07-03T10:44:29.544Z,94414.00
2023-07-03T10:45:29.548Z,94418.00
2023-07-03T10:46:29.597Z,94416.00
2023-07-03T10:47:29.563Z,94416.00
2023-07-03T10:48:29.543Z,94414.00
2023-07-03T10:49:29.518Z,94414.00
2023-07-03T10:50:29.553Z,94414.00
2023-07-03T10:51:29.585Z,94416.00
2023-07-03T10:52:29.612Z,94414.00
2023-07-03T10:53:29.661Z,94416.00
2023-07-03T10:54:29.678Z,94412.00
2023-07-03T10:55:29.793Z,94416.00
2023-07-03T10:56:29.753Z,94412.00
2023-07-03T10:57:29.818Z,94412.00
2023-07-03T10:58:29.841Z,94410.00
2023-07-03T10:59:29.859Z,94410.00
2023-07-03T11:00:29.890Z,94408.00
2023-07-03T11:01:29.961Z,94408.00
2023-07-03T11:02:29.978Z,94408.00
2023-07-03T11:03:30.061Z,94404.00
2023-07-03T11:04:30.067Z,94408.00
2023-07-03T11:05:30.079Z,94404.00
2023-07-03T11:06:30.109Z,94406.00
2023-07-03T11:07:30.171Z,94406.00
2023-07-03T11:08:30.186Z,94404.00
2023-07-03T11:09:30.234Z,94404.00
2023-07-03T11:10:30.266Z,94404.00
2023-07-03T11:11:30.472Z,94404.00
2023-07-03T11:12:30.360Z,94400.00
2023-07-03T11:13:30.412Z,94396.00
2023-07-03T11:14:30.401Z,94396.00
2023-07-03T11:15:30.432Z,94394.00
2023-07-03T11:16:30.516Z,94398.00
2023-07-03T11:17:30.529Z,94396.00
2023-07-03T11:23:30.577Z,94388.00
2023-07-03T11:24:30.529Z,94388.00
2023-07-03T11:25:30.526Z,94384.00
2023-07-03T11:28:30.513Z,94388.00
2023-07-03T11:29:30.476Z,94386.00
2023-07-03T11:30:30.472Z,94388.00
2023-07-03T11:31:30.524Z,94386.00
2023-07-03T11:32:30.476Z,94384.00
2023-07-03T11:36:37.862Z,94380.00
2023-07-03T11:40:30.446Z,94380.00
2023-07-03T11:43:30.393Z,94373.00
2023-07-03T11:44:30.385Z,94367.00
2023-07-03T11:45:30.367Z,94367.00
2023-07-03T11:46:30.408Z,94371.00
2023-07-03T11:47:30.357Z,94369.00
2023-07-03T11:48:30.351Z,94373.00
2023-07-03T11:49:30.343Z,94369.00
2023-07-03T11:50:30.357Z,94369.00
2023-07-03T11:51:30.343Z,94369.00
2023-07-03T11:52:30.358Z,94367.00
2023-07-03T11:53:30.335Z,94367.00
2023-07-03T11:54:30.336Z,94369.00
2023-07-03T11:55:30.337Z,94367.00
2023-07-03T11:56:30.318Z,94365.00
2023-07-03T11:57:30.306Z,94355.00
2023-07-03T11:58:30.299Z,94353.00
2023-07-03T11:59:30.321Z,94355.00
2023-07-03T12:00:30.338Z,94351.00
2023-07-03T12:01:30.331Z,94351.00
2023-07-03T12:02:30.310Z,94351.00
2023-07-03T12:03:30.310Z,94353.00
2023-07-03T12:04:30.262Z,94351.00
2023-07-03T12:05:30.251Z,94349.00
2023-07-03T12:06:30.250Z,94345.00
2023-07-03T12:07:30.248Z,94345.00
2023-07-03T12:08:30.228Z,94345.00